createdAt,value
2022-11-05T00:00:35.169Z,9.90
2022-11-05T00:03:20.603Z,9.80
2022-11-05T00:06:07.806Z,9.80
2022-11-05T00:09:01.802Z,9.70
2022-11-05T00:11:47.154Z,9.70
2022-11-05T00:14:33.457Z,9.70
2022-11-05T00:17:00.267Z,9.70
2022-11-05T00:19:26.991Z,9.70
2022-11-05T00:22:12.568Z,9.70
2022-11-05T00:24:58.313Z,9.70
2022-11-05T00:27:25.020Z,9.70
2022-11-05T00:29:52.034Z,9.70
2022-11-05T00:32:18.781Z,9.70
2022-11-05T00:34:46.009Z,9.60
2022-11-05T00:37:12.958Z,9.60
2022-11-05T00:39:39.770Z,9.60
2022-11-05T00:42:25.367Z,9.70
2022-11-05T00:45:00.921Z,9.70
2022-11-05T00:47:46.289Z,9.70
2022-11-05T00:50:13.446Z,9.70
2022-11-05T00:52:55.484Z,9.70
2022-11-05T00:55:37.361Z,9.70
2022-11-05T00:58:11.730Z,9.70
2022-11-05T01:00:40.586Z,9.70
2022-11-05T01:03:14.187Z,9.70
2022-11-05T01:05:44.221Z,9.70
2022-11-05T01:08:12.875Z,9.70
2022-11-05T01:10:44.995Z,9.70
2022-11-05T01:13:13.523Z,9.70
2022-11-05T01:15:41.625Z,9.70
2022-11-05T01:18:08.339Z,9.60
2022-11-05T01:20:35.075Z,9.70
2022-11-05T01:23:01.765Z,9.70
2022-11-05T01:25:28.552Z,9.70
2022-11-05T01:27:55.683Z,9.60
2022-11-05T01:30:23.170Z,9.60
2022-11-05T01:32:50.200Z,9.60
2022-11-05T01:35:18.328Z,9.70
2022-11-05T01:37:45.865Z,9.70
2022-11-05T01:40:19.042Z,9.70
2022-11-05T01:42:45.792Z,9.70
2022-11-05T01:45:14.135Z,9.60
2022-11-05T01:48:03.094Z,9.60
2022-11-05T01:50:37.898Z,9.60
2022-11-05T01:53:19.992Z,9.60
2022-11-05T01:56:10.309Z,9.60
2022-11-05T01:58:48.711Z,9.60
2022-11-05T02:01:17.140Z,9.60
2022-11-05T02:03:45.581Z,9.70
2022-11-05T02:06:15.487Z,9.70
2022-11-05T02:08:49.605Z,9.60
2022-11-05T02:11:18.775Z,9.60
2022-11-05T02:13:48.109Z,9.60
2022-11-05T02:16:36.345Z,9.60
2022-11-05T02:19:06.167Z,9.60
2022-11-05T02:22:09.321Z,9.60
2022-11-05T02:25:13.548Z,9.70
2022-11-05T02:28:07.969Z,9.70
2022-11-05T02:30:48.573Z,9.60
2022-11-05T02:33:23.540Z,9.60
2022-11-05T02:36:16.982Z,9.60
2022-11-05T02:39:25.013Z,9.60
2022-11-05T02:48:49.374Z,9.50
2022-11-05T02:51:23.893Z,9.50
2022-11-05T02:54:16.400Z,9.50
2022-11-05T02:56:47.031Z,9.50
2022-11-05T02:59:14.198Z,9.50
2022-11-05T03:01:43.388Z,9.60
2022-11-05T03:04:13.009Z,9.60
2022-11-05T03:06:52.197Z,9.60
2022-11-05T03:09:34.223Z,9.60
2022-11-05T03:12:19.864Z,9.60
2022-11-05T03:15:07.302Z,9.60
2022-11-05T03:17:45.219Z,9.60
2022-11-05T03:20:17.992Z,9.60
2022-11-05T03:22:59.534Z,9.60
2022-11-05T03:25:29.205Z,9.50
2022-11-05T03:28:02.883Z,9.50
2022-11-05T03:30:34.411Z,9.50
2022-11-05T03:33:06.789Z,9.50
2022-11-05T03:35:40.178Z,9.50
2022-11-05T03:38:14.439Z,9.50
2022-11-05T03:40:44.981Z,9.50
2022-11-05T03:43:14.988Z,9.50
2022-11-05T03:45:47.791Z,9.50
2022-11-05T03:48:16.766Z,9.50
2022-11-05T03:50:53.118Z,9.50
2022-11-05T03:53:25.978Z,9.40
2022-11-05T03:56:00.725Z,9.50
2022-11-05T03:58:28.634Z,9.50
2022-11-05T04:00:55.728Z,9.60
2022-11-05T04:03:22.425Z,9.60
2022-11-05T04:06:10.596Z,9.60
2022-11-05T04:08:55.900Z,9.60
2022-11-05T04:11:41.371Z,9.50
2022-11-05T04:14:08.394Z,9.50
2022-11-05T04:17:10.405Z,9.50
2022-11-05T04:19:56.961Z,9.50
2022-11-05T04:22:44.253Z,9.40
2022-11-05T04:25:11.582Z,9.50
2022-11-05T04:27:38.393Z,9.40
2022-11-05T04:30:24.214Z,9.40
2022-11-05T04:32:58.256Z,9.40
2022-11-05T04:35:26.901Z,9.40
2022-11-05T04:37:54.002Z,9.40
2022-11-05T04:40:20.737Z,9.40
2022-11-05T04:42:47.756Z,9.40
2022-11-05T04:45:14.616Z,9.40
2022-11-05T04:47:41.454Z,9.50
2022-11-05T04:50:10.418Z,9.40
2022-11-05T04:52:37.095Z,9.40
2022-11-05T04:55:04.440Z,9.40
2022-11-05T04:57:31.146Z,9.30
2022-11-05T04:59:57.970Z,9.30
2022-11-05T05:02:24.792Z,9.30
2022-11-05T05:04:52.065Z,9.20
2022-11-05T05:07:18.913Z,9.20
2022-11-05T05:09:45.660Z,9.30
2022-11-05T05:12:12.427Z,9.20
2022-11-05T05:14:39.127Z,9.20
2022-11-05T05:17:05.986Z,9.20
2022-11-05T05:19:52.652Z,9.20
2022-11-05T05:22:19.486Z,9.20
2022-11-05T05:24:51.528Z,9.20
2022-11-05T05:27:19.583Z,9.20
2022-11-05T05:29:46.288Z,9.30
2022-11-05T05:32:13.016Z,9.20
2022-11-05T05:34:39.863Z,9.20
2022-11-05T05:37:07.271Z,9.20
2022-11-05T05:39:34.113Z,9.20
2022-11-05T05:42:03.722Z,9.20
2022-11-05T05:44:30.401Z,9.20
2022-11-05T05:46:57.159Z,9.20
2022-11-05T05:49:23.866Z,9.10
2022-11-05T05:51:50.621Z,9.10
2022-11-05T05:54:17.695Z,9.10
2022-11-05T05:56:44.776Z,9.10
2022-11-05T05:59:12.439Z,9.10
2022-11-05T06:01:39.722Z,9.10
2022-11-05T06:04:06.722Z,9.10
2022-11-05T06:06:33.425Z,9.00
2022-11-05T06:09:00.454Z,9.00
2022-11-05T06:11:27.525Z,8.90
2022-11-05T06:13:54.228Z,8.80
2022-11-05T06:16:21.792Z,8.80
2022-11-05T06:18:48.585Z,8.80
2022-11-05T06:21:17.647Z,8.70
2022-11-05T06:23:45.740Z,8.70
2022-11-05T06:26:17.961Z,8.70
2022-11-05T06:28:45.540Z,8.70
2022-11-05T06:31:14.570Z,8.60
2022-11-05T06:33:41.818Z,8.60
2022-11-05T06:36:12.286Z,8.70
2022-11-05T06:38:39.062Z,8.60
2022-11-05T06:41:10.291Z,8.60
2022-11-05T06:43:37.527Z,8.70
2022-11-05T06:46:04.615Z,8.70
2022-11-05T06:48:34.702Z,8.70
2022-11-05T06:51:01.747Z,8.80
2022-11-05T06:53:28.917Z,8.80
2022-11-05T06:55:55.582Z,8.80
2022-11-05T06:58:22.468Z,8.80
2022-11-05T07:00:49.338Z,8.80
2022-11-05T07:03:16.268Z,8.80
2022-11-05T07:05:47.818Z,8.90
2022-11-05T07:08:14.955Z,8.90
2022-11-05T07:10:41.778Z,8.90
2022-11-05T07:13:09.184Z,8.90
2022-11-05T07:15:37.238Z,8.90
2022-11-05T07:18:05.153Z,8.90
2022-11-05T07:20:34.141Z,8.90
2022-11-05T07:23:19.727Z,8.80
2022-11-05T07:25:46.841Z,8.80
2022-11-05T07:28:14.401Z,8.90
2022-11-05T07:30:41.501Z,8.90
2022-11-05T07:33:08.893Z,8.90
2022-11-05T07:35:35.945Z,8.90
2022-11-05T07:38:03.221Z,8.90
2022-11-05T07:40:30.469Z,8.90
2022-11-05T07:42:59.323Z,9.00
2022-11-05T07:45:28.146Z,9.00
2022-11-05T07:48:00.562Z,9.00
2022-11-05T07:50:32.445Z,9.00
2022-11-05T07:53:04.034Z,9.00
2022-11-05T07:55:30.816Z,9.00
2022-11-05T07:57:57.529Z,9.00
2022-11-05T08:00:25.704Z,9.00
2022-11-05T08:03:12.276Z,9.00
2022-11-05T08:05:43.204Z,9.10
2022-11-05T08:12:21.545Z,9.20
2022-11-05T08:14:48.272Z,9.10
2022-11-05T08:17:18.463Z,9.20
2022-11-05T08:19:45.425Z,9.20
2022-11-05T08:22:12.108Z,9.20
2022-11-05T08:24:38.837Z,9.20
2022-11-05T08:27:05.652Z,9.30
2022-11-05T08:29:33.705Z,9.40
2022-11-05T08:32:00.429Z,9.40
2022-11-05T08:34:27.310Z,9.40
2022-11-05T08:36:54.059Z,9.40
2022-11-05T08:39:20.808Z,9.50
2022-11-05T08:41:47.616Z,9.50
2022-11-05T08:44:14.437Z,9.60
2022-11-05T08:46:41.841Z,9.60
2022-11-05T08:49:08.861Z,9.50
2022-11-05T08:51:35.629Z,9.40
2022-11-05T08:54:02.324Z,9.50
2022-11-05T08:56:29.257Z,9.40
2022-11-05T08:58:56.305Z,9.50
2022-11-05T09:01:23.303Z,9.50
2022-11-05T09:03:51.871Z,9.70
2022-11-05T09:06:20.588Z,9.70
2022-11-05T09:08:47.689Z,9.60
2022-11-05T09:11:14.868Z,9.60
2022-11-05T09:13:41.733Z,9.70
2022-11-05T09:16:25.540Z,9.70
2022-11-05T09:18:52.567Z,9.90
2022-11-05T09:21:19.754Z,10.10
2022-11-05T09:23:46.902Z,10.10
2022-11-05T09:26:14.185Z,10.20
2022-11-05T09:28:43.288Z,10.20
2022-11-05T09:31:11.781Z,10.20
2022-11-05T09:33:40.582Z,10.20
2022-11-05T09:36:08.326Z,10.20
2022-11-05T09:38:36.091Z,10.10
2022-11-05T09:41:32.224Z,10.10
2022-11-05T09:44:15.954Z,10.10
2022-11-05T09:46:56.553Z,10.10
2022-11-05T09:49:50.037Z,10.10
2022-11-05T09:52:29.246Z,10.20
2022-11-05T09:54:57.391Z,10.30
2022-11-05T09:57:36.381Z,10.30
2022-11-05T10:00:06.977Z,10.40
2022-11-05T10:02:47.900Z,10.40
2022-11-05T10:05:15.667Z,10.50
2022-11-05T10:07:53.357Z,10.50
2022-11-05T10:10:23.185Z,10.40
2022-11-05T10:12:56.994Z,10.60
2022-11-05T10:15:39.099Z,10.60
2022-11-05T10:18:19.288Z,10.70
2022-11-05T10:20:46.543Z,10.70
2022-11-05T10:23:21.214Z,10.70
2022-11-05T10:25:53.383Z,10.80
2022-11-05T10:28:22.912Z,10.80
2022-11-05T10:30:55.669Z,10.90
2022-11-05T10:33:48.470Z,11.00
2022-11-05T10:36:27.557Z,11.10
2022-11-05T10:39:05.727Z,10.90
2022-11-05T10:41:44.794Z,11.00
2022-11-05T10:44:34.097Z,10.90
2022-11-05T10:47:33.569Z,10.80
2022-11-05T10:50:08.824Z,10.80
2022-11-05T10:52:39.330Z,10.90
2022-11-05T10:55:17.337Z,10.90
2022-11-05T10:57:44.222Z,11.00
2022-11-05T11:00:14.956Z,11.10
2022-11-05T11:02:43.592Z,11.10
2022-11-05T11:05:19.316Z,11.20
2022-11-05T11:07:54.186Z,11.10
2022-11-05T11:10:25.228Z,11.20
2022-11-05T11:12:53.031Z,11.10
2022-11-05T11:15:29.349Z,11.20
2022-11-05T11:17:56.861Z,11.20
2022-11-05T11:20:29.761Z,11.30
2022-11-05T11:22:59.756Z,11.20
2022-11-05T11:25:30.440Z,11.10
2022-11-05T11:28:03.360Z,11.10
2022-11-05T11:30:30.670Z,11.10
2022-11-05T11:33:11.972Z,11.10
2022-11-05T11:35:39.374Z,11.20
2022-11-05T11:38:07.290Z,11.20
2022-11-05T11:40:37.649Z,11.10
2022-11-05T11:43:14.291Z,11.00
2022-11-05T11:45:47.959Z,10.90
2022-11-05T11:48:19.046Z,10.90
2022-11-05T11:50:47.765Z,10.90
2022-11-05T11:53:20.219Z,11.00
2022-11-05T11:56:03.843Z,11.20
2022-11-05T11:58:51.789Z,11.30
2022-11-05T12:01:37.354Z,11.50
2022-11-05T12:04:25.351Z,11.60
2022-11-05T12:07:19.567Z,11.70
2022-11-05T12:10:21.844Z,11.80
2022-11-05T12:12:57.209Z,12.00
2022-11-05T12:15:43.440Z,12.40
2022-11-05T12:18:26.899Z,12.60
2022-11-05T12:21:29.292Z,12.70
2022-11-05T12:24:18.275Z,12.80
2022-11-05T12:27:05.444Z,13.00
2022-11-05T12:29:44.383Z,13.30
2022-11-05T12:32:59.142Z,13.30
2022-11-05T12:35:31.822Z,13.40
2022-11-05T12:38:43.819Z,13.60
2022-11-05T12:41:47.745Z,13.60
2022-11-05T12:44:51.261Z,13.60
2022-11-05T12:47:42.738Z,13.40
2022-11-05T12:50:22.360Z,13.40
2022-11-05T12:53:15.892Z,13.30
2022-11-05T12:55:48.787Z,13.20
2022-11-05T12:58:28.583Z,12.90
2022-11-05T13:01:23.051Z,12.90
2022-11-05T13:03:57.878Z,12.80
2022-11-05T13:06:32.306Z,12.70
2022-11-05T13:09:07.557Z,12.70
2022-11-05T13:11:53.289Z,12.60
2022-11-05T13:14:32.944Z,12.70
2022-11-05T13:17:21.058Z,12.80
2022-11-05T13:19:56.628Z,12.70
2022-11-05T13:22:42.877Z,12.60
2022-11-05T13:25:24.023Z,12.60
2022-11-05T13:28:06.628Z,12.40
2022-11-05T13:30:51.643Z,12.50
2022-11-05T13:33:21.305Z,12.40
2022-11-05T13:36:30.939Z,12.40
2022-11-05T13:39:18.726Z,12.50
2022-11-05T13:41:45.427Z,12.40
2022-11-05T13:44:34.232Z,12.40
2022-11-05T13:47:10.053Z,12.30
2022-11-05T13:50:14.577Z,12.30
2022-11-05T13:53:25.857Z,12.20
2022-11-05T13:56:17.160Z,12.00
2022-11-05T13:58:46.934Z,11.70
2022-11-05T14:01:43.646Z,11.60
2022-11-05T14:04:29.108Z,11.60
2022-11-05T14:07:24.004Z,11.50
2022-11-05T14:09:57.289Z,11.60
2022-11-05T14:12:34.333Z,11.70
2022-11-05T14:15:09.382Z,11.70
2022-11-05T14:18:04.053Z,11.80
2022-11-05T14:20:30.778Z,11.70
2022-11-05T14:23:20.886Z,11.70
2022-11-05T14:25:50.485Z,11.70
2022-11-05T14:28:35.316Z,11.70
2022-11-05T14:31:04.087Z,11.50
2022-11-05T14:33:38.547Z,11.60
2022-11-05T14:36:20.746Z,11.50
2022-11-05T14:38:51.837Z,11.40
2022-11-05T14:41:20.059Z,11.40
2022-11-05T14:44:06.768Z,11.20
2022-11-05T14:46:43.123Z,11.10
2022-11-05T14:49:21.688Z,10.90
2022-11-05T14:51:51.378Z,11.00
2022-11-05T14:54:42.084Z,10.90
2022-11-05T14:57:13.649Z,11.00
2022-11-05T14:59:58.454Z,11.00
2022-11-05T15:02:32.276Z,11.00
2022-11-05T15:05:35.620Z,11.00
2022-11-05T15:08:41.546Z,11.00
2022-11-05T15:11:37.606Z,11.00
2022-11-05T15:14:13.432Z,10.90
2022-11-05T15:17:20.781Z,10.80
2022-11-05T15:23:44.167Z,10.40
2022-11-05T15:26:20.108Z,10.30
2022-11-05T15:28:49.629Z,10.30
2022-11-05T15:39:50.459Z,10.10
2022-11-05T15:42:22.106Z,10.00
2022-11-05T15:44:55.509Z,9.80
2022-11-05T15:47:28.004Z,9.70
2022-11-05T15:50:01.267Z,9.70
2022-11-05T15:52:37.123Z,9.60
2022-11-05T15:55:14.314Z,9.50
2022-11-05T15:57:50.451Z,9.50
2022-11-05T16:00:27.790Z,9.40
2022-11-05T16:03:06.345Z,9.40
2022-11-05T16:05:40.169Z,9.30
2022-11-05T16:08:14.259Z,9.20
2022-11-05T16:10:48.441Z,9.10
2022-11-05T16:13:41.743Z,9.10
2022-11-05T16:16:14.479Z,9.00
2022-11-05T16:18:42.669Z,8.90
2022-11-05T16:21:22.575Z,8.80
2022-11-05T16:23:49.325Z,8.80
2022-11-05T16:26:56.010Z,8.70
2022-11-05T16:29:28.418Z,8.60
2022-11-05T16:31:57.231Z,8.60
2022-11-05T16:34:35.889Z,8.60
2022-11-05T16:37:05.111Z,8.50
2022-11-05T16:39:32.388Z,8.50
2022-11-05T16:41:59.377Z,8.40
2022-11-05T16:44:26.242Z,8.40
2022-11-05T16:46:53.486Z,8.40
2022-11-05T16:49:20.896Z,8.40
2022-11-05T16:51:47.622Z,8.30
2022-11-05T16:54:14.391Z,8.30
2022-11-05T16:56:42.804Z,8.30
2022-11-05T16:59:12.666Z,8.20
2022-11-05T17:01:42.055Z,8.20
2022-11-05T17:04:11.628Z,8.10
2022-11-05T17:06:38.394Z,8.10
2022-11-05T17:09:05.393Z,8.00
2022-11-05T17:11:32.138Z,7.90
2022-11-05T17:13:58.951Z,7.90
2022-11-05T17:16:26.719Z,7.90
2022-11-05T17:18:53.554Z,7.90
2022-11-05T17:21:20.297Z,7.80
2022-11-05T17:23:47.342Z,7.80
2022-11-05T17:26:14.360Z,7.80
2022-11-05T17:28:41.264Z,7.70
2022-11-05T17:31:11.274Z,7.60
2022-11-05T17:33:38.070Z,7.50
2022-11-05T17:36:10.364Z,7.40
2022-11-05T17:38:37.607Z,7.40
2022-11-05T17:41:15.534Z,7.30
2022-11-05T17:43:43.085Z,7.20
2022-11-05T17:46:13.229Z,7.20
2022-11-05T17:48:40.855Z,7.10
2022-11-05T17:51:11.965Z,7.00
2022-11-05T17:53:39.270Z,7.10
2022-11-05T17:56:10.378Z,7.00
2022-11-05T17:58:37.274Z,7.00
2022-11-05T18:01:04.985Z,6.90
2022-11-05T18:03:32.378Z,6.90
2022-11-05T18:06:06.532Z,6.90
2022-11-05T18:08:33.690Z,6.80
2022-11-05T18:11:00.492Z,6.70
2022-11-05T18:13:27.216Z,6.60
2022-11-05T18:15:54.626Z,6.50
2022-11-05T18:18:22.377Z,6.50
2022-11-05T18:20:49.413Z,6.50
2022-11-05T18:23:16.238Z,6.40
2022-11-05T18:25:43.571Z,6.30
2022-11-05T18:28:10.736Z,6.30
2022-11-05T18:30:39.365Z,6.30
2022-11-05T18:33:06.524Z,6.10
2022-11-05T18:35:33.671Z,6.10
2022-11-05T18:38:00.454Z,6.10
2022-11-05T18:40:27.718Z,6.20
2022-11-05T18:42:54.633Z,6.20
2022-11-05T18:45:24.372Z,6.30
2022-11-05T18:47:53.688Z,6.40
2022-11-05T18:50:20.519Z,6.50
2022-11-05T18:52:47.271Z,6.50
2022-11-05T18:55:14.171Z,6.50
2022-11-05T18:57:40.869Z,6.50
2022-11-05T19:00:08.407Z,6.50
2022-11-05T19:02:35.988Z,6.60
2022-11-05T19:07:50.389Z,6.60
2022-11-05T19:10:17.520Z,6.60
2022-11-05T19:12:44.422Z,6.60
2022-11-05T19:15:11.440Z,6.60
2022-11-05T19:17:38.188Z,6.60
2022-11-05T19:20:06.130Z,6.70
2022-11-05T19:22:33.310Z,6.70
2022-11-05T19:25:00.065Z,6.70
2022-11-05T19:27:26.800Z,6.70
2022-11-05T19:29:53.532Z,6.70
2022-11-05T19:32:21.207Z,6.70
2022-11-05T19:34:47.911Z,6.70
2022-11-05T19:37:14.659Z,6.70
2022-11-05T19:39:41.833Z,6.70
2022-11-05T19:42:08.625Z,6.70
2022-11-05T19:44:35.420Z,6.70
2022-11-05T19:47:02.122Z,6.50
2022-11-05T19:49:28.865Z,6.40
2022-11-05T19:51:56.071Z,6.30
2022-11-05T19:54:22.912Z,6.40
2022-11-05T19:56:51.665Z,6.40
2022-11-05T19:59:18.467Z,6.40
2022-11-05T20:01:45.343Z,6.30
2022-11-05T20:04:12.474Z,6.30
2022-11-05T20:06:40.726Z,6.30
2022-11-05T20:09:27.090Z,6.30
2022-11-05T20:11:56.240Z,6.20
2022-11-05T20:14:24.780Z,6.10
2022-11-05T20:16:52.357Z,5.90
2022-11-05T20:19:21.005Z,5.90
2022-11-05T20:21:47.909Z,5.90
2022-11-05T20:24:23.703Z,6.00
2022-11-05T20:26:52.323Z,6.00
2022-11-05T20:29:19.130Z,6.00
2022-11-05T20:31:45.917Z,6.10
2022-11-05T20:34:15.012Z,6.00
2022-11-05T20:36:41.709Z,6.00
2022-11-05T20:39:09.965Z,5.90
2022-11-05T20:41:36.652Z,6.10
2022-11-05T20:44:03.441Z,6.00
2022-11-05T20:46:30.219Z,6.00
2022-11-05T20:48:56.941Z,6.00
2022-11-05T20:51:25.290Z,5.90
2022-11-05T20:53:56.737Z,5.90
2022-11-05T20:56:26.617Z,6.10
2022-11-05T20:58:53.873Z,6.00
2022-11-05T21:01:20.833Z,6.00
2022-11-05T21:03:48.228Z,6.00
2022-11-05T21:06:15.660Z,6.00
2022-11-05T21:08:43.378Z,6.10
2022-11-05T21:11:10.689Z,6.00
2022-11-05T21:13:37.861Z,6.10
2022-11-05T21:16:06.478Z,6.00
2022-11-05T21:18:35.840Z,6.10
2022-11-05T21:21:07.553Z,6.00
2022-11-05T21:23:34.424Z,6.00
2022-11-05T21:26:05.750Z,6.00
2022-11-05T21:28:32.932Z,5.80
2022-11-05T21:31:04.573Z,5.80
2022-11-05T21:33:31.830Z,5.70
2022-11-05T21:35:59.313Z,5.70
2022-11-05T21:38:26.173Z,5.60
2022-11-05T21:40:52.889Z,5.60
2022-11-05T21:43:19.593Z,5.70
2022-11-05T21:45:46.311Z,5.70
2022-11-05T21:48:15.145Z,5.80
2022-11-05T21:51:01.126Z,5.70
2022-11-05T21:53:46.422Z,5.70
2022-11-05T21:56:37.674Z,5.80
2022-11-05T21:59:24.060Z,5.70
2022-11-05T22:01:51.015Z,5.80
2022-11-05T22:04:17.795Z,5.80
2022-11-05T22:06:44.552Z,5.90
2022-11-05T22:09:11.301Z,5.90
2022-11-05T22:11:38.227Z,5.90
2022-11-05T22:14:04.985Z,6.00
2022-11-05T22:16:32.291Z,6.00
2022-11-05T22:18:59.524Z,6.00
2022-11-05T22:21:26.262Z,6.00
2022-11-05T22:23:53.595Z,6.00
2022-11-05T22:26:20.635Z,6.00
2022-11-05T22:28:47.490Z,6.00
2022-11-05T22:31:15.620Z,6.00
2022-11-05T22:33:43.181Z,6.10
2022-11-05T22:36:11.518Z,6.10
2022-11-05T22:38:39.091Z,6.00
2022-11-05T22:41:14.558Z,6.10
2022-11-05T22:43:41.641Z,6.10
2022-11-05T22:46:14.108Z,6.10
2022-11-05T22:48:41.570Z,6.00
2022-11-05T22:51:17.547Z,6.00
2022-11-05T22:53:44.536Z,6.10
2022-11-05T22:56:14.290Z,6.10
2022-11-05T22:58:41.550Z,6.20
2022-11-05T23:01:11.760Z,6.10
2022-11-05T23:03:40.301Z,6.10
2022-11-05T23:06:47.065Z,6.10
2022-11-05T23:10:05.191Z,6.10
2022-11-05T23:12:35.270Z,6.00
2022-11-05T23:15:05.584Z,6.00
2022-11-05T23:17:51.117Z,6.00
2022-11-05T23:20:42.173Z,6.00
2022-11-05T23:23:29.860Z,6.00
2022-11-05T23:25:58.489Z,5.90
2022-11-05T23:28:25.760Z,5.90
2022-11-05T23:31:11.099Z,6.00
2022-11-05T23:33:38.341Z,6.00
2022-11-05T23:36:23.747Z,6.00
2022-11-05T23:38:50.598Z,5.90
2022-11-05T23:41:36.391Z,6.00
2022-11-05T23:44:21.700Z,5.90
2022-11-05T23:47:07.398Z,5.90
2022-11-05T23:49:34.349Z,5.80
2022-11-05T23:52:01.304Z,5.70
2022-11-05T23:54:29.430Z,5.70
2022-11-05T23:56:56.547Z,5.70
2022-11-05T23:59:23.448Z,5.70
